Western Neb. Rgnl/William B. Heilig Airport
KBFF : now visible

Airfield :











YOU CAN JOIN US ON...

 
LOGIN :

Register | Disclaimer

   EN    FR    IT 

 









Legend :    VFR   Marginal VFR   IFR   Intensive IFR   Very Intensive IFR
Visi :
Ceiling :
>= 8 km
>= 3000ft
5 to 8 km
1000 to 3000 ft
1500m to 5 km
500 to 1000 ft
800 to 1500m
200 to 500 ft
< 800m
< 200 ft
Symbols :   Thunderstorms  Fog  Heavy snow  Heavy precipitations  Wind > 20 kt






- Airport Elevation : 3967 ft
- IATA code : BFF


KBFF - Western Neb. Rgnl/William B. Heilig

CURRENT METAR :
  • 280953Z AUTO 29009KT 10SM CLR 06/M08 A2961 RMK AO2 PK WND 26028/0901 SLP019 T00561078 $

EXPIRED METARs :
  • 280853Z AUTO 27016G26KT 10SM CLR 07/M08 A2960 RMK AO2 PK WND 26026/0828 SLP013 T00671078 58011 $
  • 280753Z AUTO 28013KT 10SM CLR 07/M08 A2960 RMK AO2 SLP015 T00671078 $

TAF KBFF
Valid from the 28 at 06:00 until the 29 at 06:00 UTC


280520Z 2806/2906 26013KT P6SM FEW200
FM280900 29012KT P6SM SCT200
FM281400 20010KT P6SM BKN200
FM290200 03012KT 6SM -SN BR OVC025
FM290500 04011KT 2SM -SN BR OVC006
KZDV FIR / North America



MET'MAP, your aeronautical weather chart ! - Copyright ORBIFLY December 2007 - Disclaimer

ORBIFLY MET'MAP TEAM :

Programming & Development : Alexandra Zaïnal
Original concept : Baudouin d'Aumeries
Technical & hardware support : Manuel Goepfert
Assistance : Marc-Olivier Méhu




SOURCES & CREDITS :

   NOAA       Earth
Advisory